Time;durP1;ratioP1;P1;durP2;ratioP2;P2;SDS_P1;SDS_P2;PMS_P1;PMS_P2;Temp;Humidity;BMP_temperature;BMP_pressure;BME280_temperature;BME280_humidity;BME280_pressure;Samples;Min_cycle;Max_cycle;Signal;HPM_P1;HPM_P2
2024/01/22 00:01:03;;;;;;;;;;;;;;;2.25;67.66;101386.16;4204539;28;20030;-69
2024/01/22 00:03:05;;;;;;;;;;;;;;;2.25;67.74;101364.84;4204883;28;20466;-69
2024/01/22 00:05:08;;;;;;;;;;;;;;;2.23;67.48;101351.63;4180548;28;20011;-69
2024/01/22 00:07:10;;;;;;;;;;;;;;;2.25;67.71;101341.69;4196214;28;20028;-69
2024/01/22 00:09:12;;;;;;;;;;;;;;;2.24;67.70;101323.16;4195049;28;20043;-70
2024/01/22 00:11:14;;;;;;;;;;;;;;;2.22;68.01;101317.91;4195193;28;20036;-71
2024/01/22 00:13:16;;;;;;;;;;;;;;;2.21;67.82;101323.38;4196082;28;19924;-69
2024/01/22 00:15:19;;;;;;;;;;;;;;;2.21;67.82;101324.25;4196231;28;20047;-71
2024/01/22 00:17:22;;;;;;;;;;;;;;;2.21;67.87;101316.25;4196262;28;20031;-71
2024/01/22 00:19:24;;;;;;;;;;;;;;;2.21;68.14;101321.56;4195546;28;20043;-71
2024/01/22 00:21:25;;;;;;;;;;;;;;;2.22;67.82;101309.94;4195044;28;20031;-70
2024/01/22 00:23:27;;;;;;;;;;;;;;;2.23;68.09;101297.47;4196329;28;19929;-69
2024/01/22 00:25:29;;;;;;;;;;;;;;;2.23;68.02;101300.97;4194880;28;20048;-70
2024/01/22 00:27:31;;;;;;;;;;;;;;;2.22;68.03;101307.25;4196387;28;20023;-70
2024/01/22 00:29:33;;;;;;;;;;;;;;;2.23;68.08;101297.47;4195435;28;20370;-69
2024/01/22 00:31:36;;;;;;;;;;;;;;;2.23;68.10;101292.16;4194827;28;20580;-69
2024/01/22 00:33:38;;;;;;;;;;;;;;;2.24;68.36;101291.16;4196285;28;19924;-69
2024/01/22 00:35:40;;;;;;;;;;;;;;;2.23;68.41;101279.66;4195269;28;20019;-69
2024/01/22 00:37:43;;;;;;;;;;;;;;;2.23;68.45;101271.66;4195914;28;20011;-70
2024/01/22 00:39:44;;;;;;;;;;;;;;;2.24;68.51;101264.50;4195521;28;20019;-69
2024/01/22 00:41:46;;;;;;;;;;;;;;;2.23;68.39;101245.00;4195064;28;20023;-70
2024/01/22 00:43:48;;;;;;;;;;;;;;;2.26;68.40;101247.47;4195043;28;20372;-73
2024/01/22 00:45:50;;;;;;;;;;;;;;;2.26;68.54;101244.78;4195486;28;20011;-69
2024/01/22 00:47:54;;;;;;;;;;;;;;;2.28;68.80;101240.19;4202762;28;20007;-69
2024/01/22 00:49:55;;;;;;;;;;;;;;;2.29;68.70;101251.72;4195576;28;20011;-70
2024/01/22 00:51:57;;;;;;;;;;;;;;;2.30;68.76;101250.75;4195742;28;20031;-71
2024/01/22 00:53:59;;;;;;;;;;;;;;;2.32;69.10;101256.81;4196081;28;20638;-70
2024/01/22 00:56:00;;;;;;;;;;;;;;;2.31;69.25;101237.31;4195522;28;20047;-70
2024/01/22 00:58:02;;;;;;;;;;;;;;;2.32;69.31;101246.13;4203061;28;20374;-70
2024/01/22 01:00:04;;;;;;;;;;;;;;;2.31;69.29;101237.31;4194650;28;20019;-70
2024/01/22 01:02:06;;;;;;;;;;;;;;;2.32;69.29;101227.47;4195572;28;20448;-70
2024/01/22 01:04:09;;;;;;;;;;;;;;;2.31;69.28;101226.63;4196250;28;20011;-69
2024/01/22 01:06:12;;;;;;;;;;;;;;;2.28;69.14;101224.19;4202439;28;20027;-70
2024/01/22 01:08:13;;;;;;;;;;;;;;;2.29;69.31;101211.75;4204072;28;20039;-71
2024/01/22 01:10:14;;;;;;;;;;;;;;;2.30;69.43;101208.09;4201590;28;20023;-69
2024/01/22 01:12:16;;;;;;;;;;;;;;;2.31;69.65;101212.47;4202848;28;20050;-70
2024/01/22 01:14:18;;;;;;;;;;;;;;;2.31;69.48;101197.31;4203872;28;19988;-69
2024/01/22 01:16:21;;;;;;;;;;;;;;;2.33;69.54;101210.53;4202915;28;20023;-69
2024/01/22 01:18:22;;;;;;;;;;;;;;;2.34;69.61;101198.91;4202393;28;20019;-70
2024/01/22 01:20:26;;;;;;;;;;;;;;;2.34;69.56;101194.44;4169671;28;20016;-70
2024/01/22 01:22:28;;;;;;;;;;;;;;;2.34;69.57;101190.94;4203844;28;20038;-69
2024/01/22 01:24:30;;;;;;;;;;;;;;;2.33;69.45;101187.38;4203636;28;20023;-69
2024/01/22 01:26:32;;;;;;;;;;;;;;;2.33;69.42;101184.72;4203958;28;20023;-70
2024/01/22 01:28:34;;;;;;;;;;;;;;;2.35;69.79;101179.28;4203920;28;20024;-70
2024/01/22 01:30:35;;;;;;;;;;;;;;;2.36;69.64;101165.00;4203066;28;20035;-70
2024/01/22 01:32:37;;;;;;;;;;;;;;;2.34;69.79;101173.09;4204089;28;20371;-70
2024/01/22 01:34:39;;;;;;;;;;;;;;;2.35;69.82;101165.94;4203816;28;20817;-70
2024/01/22 01:36:42;;;;;;;;;;;;;;;2.37;69.81;101165.84;4203204;28;20007;-70
2024/01/22 01:38:44;;;;;;;;;;;;;;;2.36;69.71;101173.00;4203373;28;20015;-69
2024/01/22 01:40:45;;;;;;;;;;;;;;;2.36;69.69;101166.81;4202125;28;20441;-70
2024/01/22 01:42:47;;;;;;;;;;;;;;;2.36;69.95;101166.81;4203081;28;19932;-70
2024/01/22 01:44:49;;;;;;;;;;;;;;;2.36;69.79;101165.00;4204031;28;20003;-70
2024/01/22 01:46:51;;;;;;;;;;;;;;;2.34;69.96;101157.13;4203744;28;20018;-70
2024/01/22 01:48:53;;;;;;;;;;;;;;;2.37;69.83;101153.38;4203721;28;20008;-70
2024/01/22 01:50:55;;;;;;;;;;;;;;;2.39;70.08;101155.94;4203089;28;20488;-70
2024/01/22 01:53:00;;;;;;;;;;;;;;;2.40;70.06;101141.63;4205726;28;20024;-71
2024/01/22 01:55:02;;;;;;;;;;;;;;;2.39;70.11;101140.78;4206192;28;20441;-70
2024/01/22 01:57:04;;;;;;;;;;;;;;;2.40;69.94;101138.94;4206044;28;20031;-70
2024/01/22 01:59:07;;;;;;;;;;;;;;;2.41;70.06;101130.00;4203553;28;20051;-69
2024/01/22 02:01:09;;;;;;;;;;;;;;;2.43;69.97;101138.72;4206177;28;20019;-72
2024/01/22 02:03:10;;;;;;;;;;;;;;;2.43;70.34;101138.72;4204801;28;20023;-71
2024/01/22 02:05:13;;;;;;;;;;;;;;;2.42;70.21;101121.03;4207223;28;20020;-70
2024/01/22 02:07:15;;;;;;;;;;;;;;;2.44;70.33;101109.28;4205869;28;20441;-70
2024/01/22 02:09:18;;;;;;;;;;;;;;;2.47;70.42;101113.53;4206377;28;20015;-71
2024/01/22 02:11:21;;;;;;;;;;;;;;;2.46;70.51;101098.50;4205776;28;20015;-70
2024/01/22 02:13:24;;;;;;;;;;;;;;;2.45;70.56;101068.34;4204668;28;20341;-70
2024/01/22 02:15:26;;;;;;;;;;;;;;;2.46;70.61;101071.84;4205411;28;19925;-69
2024/01/22 02:17:27;;;;;;;;;;;;;;;2.49;70.53;101072.47;4206588;28;20022;-70
2024/01/22 02:19:29;;;;;;;;;;;;;;;2.49;70.70;101058.28;4206299;28;20011;-70
2024/01/22 02:21:31;;;;;;;;;;;;;;;2.50;70.67;101057.31;4205396;28;20073;-71
2024/01/22 02:23:35;;;;;;;;;;;;;;;2.47;70.72;101045.06;4206569;28;20015;-70
2024/01/22 02:25:37;;;;;;;;;;;;;;;2.49;71.01;101051.16;4206493;28;20825;-70
2024/01/22 02:27:38;;;;;;;;;;;;;;;2.52;71.01;101048.25;4205650;28;20019;-69
2024/01/22 02:29:39;;;;;;;;;;;;;;;2.52;70.91;101045.59;4205042;28;19924;-70
2024/01/22 02:31:41;;;;;;;;;;;;;;;2.55;71.40;101049.81;4205599;28;20022;-70
2024/01/22 02:33:43;;;;;;;;;;;;;;;2.58;71.35;101028.25;4205452;28;20016;-70
2024/01/22 02:35:45;;;;;;;;;;;;;;;2.58;71.40;101024.75;4205977;28;19924;-69
2024/01/22 02:37:46;;;;;;;;;;;;;;;2.58;71.30;101020.25;4205415;28;20014;-69
2024/01/22 02:39:49;;;;;;;;;;;;;;;2.56;71.54;101024.84;4205339;28;20742;-70
2024/01/22 02:41:51;;;;;;;;;;;;;;;2.57;71.78;101013.25;4205679;28;20157;-70
2024/01/22 02:43:53;;;;;;;;;;;;;;;2.59;71.89;101018.44;4206056;28;20016;-70
2024/01/22 02:45:55;;;;;;;;;;;;;;;2.61;71.85;101017.34;4206569;28;20479;-70
2024/01/22 02:47:57;;;;;;;;;;;;;;;2.60;72.01;101012.13;4205866;28;20012;-70
2024/01/22 02:50:01;;;;;;;;;;;;;;;2.61;71.94;101008.50;4205012;28;20027;-70
2024/01/22 02:52:03;;;;;;;;;;;;;;;2.60;72.05;101005.00;4204454;28;20035;-71
2024/01/22 02:54:08;;;;;;;;;;;;;;;2.63;72.19;101012.75;4206367;28;20086;-70
2024/01/22 02:56:11;;;;;;;;;;;;;;;2.64;72.24;101013.59;4206049;28;19932;-69
2024/01/22 02:58:13;;;;;;;;;;;;;;;2.63;72.17;101006.56;4206148;28;20016;-69
2024/01/22 03:00:15;;;;;;;;;;;;;;;2.65;72.23;101002.81;4205067;28;20024;-69
2024/01/22 03:02:16;;;;;;;;;;;;;;;2.68;72.55;100999.03;4205550;28;20026;-69
2024/01/22 03:04:18;;;;;;;;;;;;;;;2.67;72.55;100992.88;4204485;28;19967;-69
2024/01/22 03:06:19;;;;;;;;;;;;;;;2.69;72.48;100992.75;4205660;28;20456;-70
2024/01/22 03:08:21;;;;;;;;;;;;;;;2.72;72.57;100997.84;4205928;28;20454;-69
2024/01/22 03:10:23;;;;;;;;;;;;;;;2.70;72.69;100981.97;4205785;28;20023;-69
2024/01/22 03:12:27;;;;;;;;;;;;;;;2.73;73.01;100977.34;4204555;28;20011;-70
2024/01/22 03:14:29;;;;;;;;;;;;;;;2.71;73.06;100969.47;4205416;28;20034;-70
2024/01/22 03:16:31;;;;;;;;;;;;;;;2.75;73.05;100980.78;4205595;28;20456;-70
2024/01/22 03:18:33;;;;;;;;;;;;;;;2.76;73.19;100963.78;4205999;28;20015;-70
2024/01/22 03:20:35;;;;;;;;;;;;;;;2.78;73.27;100980.53;4205757;28;20477;-70
2024/01/22 03:22:37;;;;;;;;;;;;;;;2.79;73.40;100974.19;4204886;28;20102;-70
2024/01/22 03:24:42;;;;;;;;;;;;;;;2.79;73.57;100959.06;4205735;28;20019;-70
2024/01/22 03:26:43;;;;;;;;;;;;;;;2.78;73.54;100959.19;4179667;28;19936;-70
2024/01/22 03:28:47;;;;;;;;;;;;;;;2.78;73.67;100961.84;4205634;28;19928;-70
2024/01/22 03:30:49;;;;;;;;;;;;;;;2.79;73.49;100964.41;4204712;28;20034;-70
2024/01/22 03:32:51;;;;;;;;;;;;;;;2.78;73.70;100962.69;4205296;28;20031;-70
2024/01/22 03:34:53;;;;;;;;;;;;;;;2.82;73.76;100949.94;4205249;28;20477;-71
2024/01/22 03:36:55;;;;;;;;;;;;;;;2.83;73.74;100954.31;4205853;28;19971;-70
2024/01/22 03:39:00;;;;;;;;;;;;;;;2.84;73.74;100956.03;4206031;28;20026;-70
2024/01/22 03:41:01;;;;;;;;;;;;;;;2.84;73.78;100942.69;4204989;28;20019;-70
2024/01/22 03:43:04;;;;;;;;;;;;;;;2.83;73.96;100939.16;4204533;28;20043;-71
2024/01/22 03:45:07;;;;;;;;;;;;;;;2.83;74.04;100935.66;4205743;28;20027;-70
2024/01/22 03:47:09;;;;;;;;;;;;;;;2.83;74.01;100933.81;4205613;28;20015;-71
2024/01/22 03:49:11;;;;;;;;;;;;;;;2.85;73.90;100925.69;4204952;28;20047;-70
2024/01/22 03:51:13;;;;;;;;;;;;;;;2.84;73.63;100921.34;4204759;28;20019;-70
2024/01/22 03:53:14;;;;;;;;;;;;;;;2.85;74.02;100913.22;4205383;28;20015;-71
2024/01/22 03:55:16;;;;;;;;;;;;;;;2.87;74.09;100913.94;4205174;28;19932;-70
2024/01/22 03:57:18;;;;;;;;;;;;;;;2.91;73.94;100903.03;4205406;28;20320;-70
2024/01/22 03:59:20;;;;;;;;;;;;;;;2.93;74.29;100909.94;4205377;28;20014;-71
2024/01/22 04:01:24;;;;;;;;;;;;;;;2.91;74.22;100903.88;4204559;28;20337;-71
2024/01/22 04:03:26;;;;;;;;;;;;;;;2.93;74.48;100885.94;4205531;28;20464;-71
2024/01/22 04:05:28;;;;;;;;;;;;;;;2.95;74.40;100884.00;4211120;28;20015;-70
2024/01/22 04:07:29;;;;;;;;;;;;;;;2.95;74.45;100867.13;4213500;28;20018;-70
2024/01/22 04:09:31;;;;;;;;;;;;;;;2.98;74.43;100885.53;4210308;28;20027;-70
2024/01/22 04:11:34;;;;;;;;;;;;;;;3.00;74.55;100888.94;4211584;28;20214;-71
2024/01/22 04:13:38;;;;;;;;;;;;;;;3.01;74.89;100893.28;4212600;28;20373;-70
2024/01/22 04:15:40;;;;;;;;;;;;;;;3.00;74.96;100859.59;4212777;28;20019;-70
2024/01/22 04:17:44;;;;;;;;;;;;;;;2.99;74.93;100868.56;4194409;28;19967;-70
2024/01/22 04:19:45;;;;;;;;;;;;;;;3.01;74.72;100890.63;4212869;28;20015;-71
2024/01/22 04:21:47;;;;;;;;;;;;;;;3.00;74.79;100870.28;4212288;28;20019;-70
2024/01/22 04:23:49;;;;;;;;;;;;;;;3.01;74.77;100862.16;4213359;28;20016;-70
2024/01/22 04:25:51;;;;;;;;;;;;;;;3.02;74.82;100841.63;4213250;28;20023;-70
2024/01/22 04:27:54;;;;;;;;;;;;;;;3.04;75.04;100842.34;4213443;28;20026;-70
2024/01/22 04:29:57;;;;;;;;;;;;;;;3.03;75.08;100825.50;4212377;28;20345;-71
2024/01/22 04:31:58;;;;;;;;;;;;;;;3.05;74.95;100820.03;4212562;28;20015;-71
2024/01/22 04:34:02;;;;;;;;;;;;;;;3.08;75.04;100824.28;4213351;28;20441;-71
2024/01/22 04:36:04;;;;;;;;;;;;;;;3.10;74.99;100830.34;4212268;28;20015;-71
2024/01/22 04:38:05;;;;;;;;;;;;;;;3.13;75.27;100830.91;4212468;28;20691;-70
2024/01/22 04:40:11;;;;;;;;;;;;;;;3.13;75.67;100816.75;4211878;28;19959;-71
2024/01/22 04:42:18;;;;;;;;;;;;;;;3.16;75.80;100803.13;4211470;28;20014;-69
2024/01/22 04:44:20;;;;;;;;;;;;;;;3.17;75.78;100789.66;4212586;28;20015;-71
2024/01/22 04:46:22;;;;;;;;;;;;;;;3.18;76.29;100788.72;4209929;28;20014;-70
2024/01/22 04:48:24;;;;;;;;;;;;;;;3.19;76.03;100798.38;4212195;28;20043;-70
2024/01/22 04:50:27;;;;;;;;;;;;;;;3.19;76.11;100789.53;4212458;28;20038;-70
2024/01/22 04:52:30;;;;;;;;;;;;;;;3.20;76.43;100783.25;4212255;28;19959;-70
2024/01/22 04:54:32;;;;;;;;;;;;;;;3.21;76.52;100820.47;4212271;28;20047;-70
2024/01/22 04:56:34;;;;;;;;;;;;;;;3.23;76.45;100837.22;4212207;28;20019;-70
2024/01/22 04:58:36;;;;;;;;;;;;;;;3.24;76.80;100827.38;4213582;28;20496;-70
2024/01/22 05:00:38;;;;;;;;;;;;;;;3.26;76.79;100801.41;4212126;28;20019;-70
2024/01/22 05:02:40;;;;;;;;;;;;;;;3.26;76.80;100804.09;4212291;28;20023;-70
2024/01/22 05:04:42;;;;;;;;;;;;;;;3.27;76.92;100786.22;4213061;28;20014;-70
2024/01/22 05:06:46;;;;;;;;;;;;;;;3.26;76.89;100769.38;4212828;28;20030;-70
2024/01/22 05:08:47;;;;;;;;;;;;;;;3.28;77.05;100762.09;4193901;28;20024;-70
2024/01/22 05:10:49;;;;;;;;;;;;;;;3.30;76.85;100727.25;4211380;28;20023;-70
2024/01/22 05:12:51;;;;;;;;;;;;;;;3.31;76.99;100655.03;4212243;28;20444;-70
2024/01/22 05:14:53;;;;;;;;;;;;;;;3.32;77.08;100655.88;4212605;28;20007;-69
2024/01/22 05:16:55;;;;;;;;;;;;;;;3.33;77.08;100625.53;4212156;28;20553;-71
2024/01/22 05:18:57;;;;;;;;;;;;;;;3.32;77.22;100656.72;4213052;28;20357;-71
2024/01/22 05:20:59;;;;;;;;;;;;;;;3.32;76.98;100670.06;4212024;28;20019;-71
2024/01/22 05:23:02;;;;;;;;;;;;;;;3.35;76.97;100666.28;4211723;28;20043;-68
2024/01/22 05:25:05;;;;;;;;;;;;;;;3.34;77.07;100734.88;4211977;28;20023;-70
2024/01/22 05:27:08;;;;;;;;;;;;;;;3.34;77.19;100742.00;4212146;28;20007;-70
2024/01/22 05:29:10;;;;;;;;;;;;;;;3.36;76.88;100711.53;4212195;28;20031;-71
2024/01/22 05:31:11;;;;;;;;;;;;;;;3.40;77.07;100741.50;4192517;28;20397;-70
2024/01/22 05:33:13;;;;;;;;;;;;;;;3.39;77.19;100711.28;4212049;28;19924;-70
2024/01/22 05:35:15;;;;;;;;;;;;;;;3.41;77.47;100703.16;4212346;28;20051;-70
2024/01/22 05:37:17;;;;;;;;;;;;;;;3.44;77.56;100686.88;4211921;28;20018;-70
2024/01/22 05:39:20;;;;;;;;;;;;;;;3.45;77.66;100663.66;4211989;28;19934;-70
2024/01/22 05:41:22;;;;;;;;;;;;;;;3.45;77.78;100643.19;4211694;28;20046;-69
2024/01/22 05:43:24;;;;;;;;;;;;;;;3.47;77.61;100645.72;4212462;28;20026;-70
2024/01/22 05:45:26;;;;;;;;;;;;;;;3.48;77.78;100661.59;4186307;28;20015;-70
2024/01/22 05:47:27;;;;;;;;;;;;;;;3.49;78.11;100667.78;4211543;28;20019;-71
2024/01/22 05:49:29;;;;;;;;;;;;;;;3.50;78.18;100670.31;4211345;28;20019;-70
2024/01/22 05:51:31;;;;;;;;;;;;;;;3.52;78.18;100670.19;4212114;28;20031;-70
2024/01/22 05:53:32;;;;;;;;;;;;;;;3.54;78.47;100661.06;4212566;28;20380;-70
2024/01/22 05:55:36;;;;;;;;;;;;;;;3.54;78.56;100660.19;4211228;28;19924;-70
2024/01/22 05:57:39;;;;;;;;;;;;;;;3.56;78.44;100655.59;4211603;28;20024;-70
2024/01/22 05:59:40;;;;;;;;;;;;;;;3.57;78.65;100652.78;4211522;28;20020;-69
2024/01/22 06:01:42;;;;;;;;;;;;;;;3.57;79.00;100636.78;4211810;28;20022;-71
2024/01/22 06:03:43;;;;;;;;;;;;;;;3.59;79.00;100642.81;4212638;28;20010;-70
2024/01/22 06:05:46;;;;;;;;;;;;;;;3.60;79.08;100633.84;4204878;28;20866;-70
2024/01/22 06:07:47;;;;;;;;;;;;;;;3.62;79.03;100625.69;4203694;28;20028;-70
2024/01/22 06:09:50;;;;;;;;;;;;;;;3.63;79.20;100568.59;4202160;28;20027;-69
2024/01/22 06:11:53;;;;;;;;;;;;;;;3.65;79.39;100552.44;4183061;28;20028;-70
2024/01/22 06:13:55;;;;;;;;;;;;;;;3.66;79.33;100570.16;4198800;28;20011;-70
2024/01/22 06:15:57;;;;;;;;;;;;;;;3.67;79.42;100587.84;4170609;28;20012;-70
2024/01/22 06:17:58;;;;;;;;;;;;;;;3.67;79.54;100590.53;4201883;28;20034;-70
2024/01/22 06:20:00;;;;;;;;;;;;;;;3.68;79.58;100592.22;4196943;28;20389;-70
2024/01/22 06:22:02;;;;;;;;;;;;;;;3.71;79.55;100581.28;4197781;28;20018;-70
2024/01/22 06:24:05;;;;;;;;;;;;;;;3.72;79.62;100582.97;4203726;28;19956;-71
2024/01/22 06:26:08;;;;;;;;;;;;;;;3.72;79.79;100594.50;4202317;28;20027;-69
2024/01/22 06:28:11;;;;;;;;;;;;;;;3.73;80.11;100584.63;4202853;28;20011;-70
2024/01/22 06:30:15;;;;;;;;;;;;;;;3.74;80.02;100589.00;4171250;28;19933;-70
2024/01/22 06:32:18;;;;;;;;;;;;;;;3.76;80.02;100597.72;4201657;28;20015;-69
2024/01/22 06:34:20;;;;;;;;;;;;;;;3.78;80.57;100579.75;4183483;28;20020;-69
2024/01/22 06:36:21;;;;;;;;;;;;;;;3.79;80.60;100592.13;4202706;28;20023;-70
2024/01/22 06:38:23;;;;;;;;;;;;;;;3.81;80.60;100605.34;4183911;28;19937;-70
2024/01/22 06:40:25;;;;;;;;;;;;;;;3.81;80.47;100586.63;4202509;28;20022;-70
2024/01/22 06:42:29;;;;;;;;;;;;;;;3.81;80.56;100600.84;4204912;28;20370;-70
2024/01/22 06:44:32;;;;;;;;;;;;;;;3.82;80.45;100626.56;4207005;28;19932;-69
2024/01/22 06:46:33;;;;;;;;;;;;;;;3.86;80.66;100589.75;4205851;28;20019;-69
2024/01/22 06:48:35;;;;;;;;;;;;;;;3.86;80.88;100590.59;4204788;28;19974;-70
2024/01/22 06:50:37;;;;;;;;;;;;;;;3.87;80.64;100602.97;4205045;28;20019;-70
2024/01/22 06:52:39;;;;;;;;;;;;;;;3.89;80.87;100601.00;4205154;28;20026;-70
2024/01/22 06:54:41;;;;;;;;;;;;;;;3.90;80.61;100575.13;4205685;28;19989;-69
2024/01/22 06:56:43;;;;;;;;;;;;;;;3.90;80.86;100581.34;4204325;28;20015;-71
2024/01/22 06:58:45;;;;;;;;;;;;;;;3.92;80.70;100592.72;4204829;28;20035;-70
2024/01/22 07:00:51;;;;;;;;;;;;;;;3.93;80.82;100575.72;4203223;28;20465;-70
2024/01/22 07:02:52;;;;;;;;;;;;;;;3.95;80.94;100589.78;4204030;28;20018;-69
2024/01/22 07:04:55;;;;;;;;;;;;;;;3.96;80.93;100583.44;4203995;28;20016;-70
2024/01/22 07:06:57;;;;;;;;;;;;;;;3.99;80.89;100560.09;4205100;28;20024;-70
2024/01/22 07:08:59;;;;;;;;;;;;;;;4.00;80.61;100564.44;4205555;28;19935;-70
2024/01/22 07:11:01;;;;;;;;;;;;;;;4.01;80.88;100574.16;4205028;28;20035;-70
2024/01/22 07:13:04;;;;;;;;;;;;;;;4.01;80.63;100556.28;4205425;28;20622;-70
2024/01/22 07:15:05;;;;;;;;;;;;;;;4.00;80.57;100561.78;4204925;28;20023;-69
2024/01/22 07:17:08;;;;;;;;;;;;;;;4.04;80.77;100548.00;4187911;28;20023;-70
2024/01/22 07:19:11;;;;;;;;;;;;;;;4.06;80.96;100548.72;4205417;28;20047;-69
2024/01/22 07:21:12;;;;;;;;;;;;;;;4.07;81.03;100557.56;4204582;28;19924;-70
2024/01/22 07:23:14;;;;;;;;;;;;;;;4.08;81.01;100549.41;4204712;28;20019;-69
2024/01/22 07:25:17;;;;;;;;;;;;;;;4.08;80.68;100576.16;4205266;28;20043;-70
2024/01/22 07:27:19;;;;;;;;;;;;;;;4.10;80.91;100523.38;4204513;28;20031;-70
2024/01/22 07:29:21;;;;;;;;;;;;;;;4.12;81.05;100552.66;4203148;28;20020;-70
2024/01/22 07:31:23;;;;;;;;;;;;;;;4.12;81.08;100596.28;4202248;28;20023;-70
2024/01/22 07:33:26;;;;;;;;;;;;;;;4.14;81.02;100550.69;4203497;28;20621;-70
2024/01/22 07:35:27;;;;;;;;;;;;;;;4.15;80.81;100566.59;4202709;28;20019;-69
2024/01/22 07:37:29;;;;;;;;;;;;;;;4.17;80.61;100550.41;4205552;28;19935;-69
2024/01/22 07:39:31;;;;;;;;;;;;;;;4.18;80.80;100519.19;4203513;28;20007;-69
2024/01/22 07:41:32;;;;;;;;;;;;;;;4.19;80.85;100539.59;4204174;28;20353;-70
2024/01/22 07:43:34;;;;;;;;;;;;;;;4.21;80.80;100532.25;4204548;28;19974;-70
2024/01/22 07:45:36;;;;;;;;;;;;;;;4.22;80.52;100520.59;4205476;28;20050;-70
2024/01/22 07:47:39;;;;;;;;;;;;;;;4.24;80.46;100510.59;4205474;28;20366;-70
2024/01/22 07:49:42;;;;;;;;;;;;;;;4.25;80.44;100552.41;4204354;28;20497;-70
2024/01/22 07:51:44;;;;;;;;;;;;;;;4.27;80.61;100511.16;4171545;28;20063;-70
2024/01/22 07:53:46;;;;;;;;;;;;;;;4.27;80.80;100511.16;4205534;28;20011;-70
2024/01/22 07:55:48;;;;;;;;;;;;;;;4.29;80.61;100494.97;4204440;28;20354;-70
2024/01/22 07:57:50;;;;;;;;;;;;;;;4.30;80.70;100518.06;4205445;28;20368;-70
2024/01/22 07:59:51;;;;;;;;;;;;;;;4.32;80.62;100513.41;4171147;28;20549;-70
2024/01/22 08:01:53;;;;;;;;;;;;;;;4.33;80.43;100512.41;4205430;28;19928;-69
2024/01/22 08:03:55;;;;;;;;;;;;;;;4.34;80.40;100495.38;4205319;28;20364;-69
2024/01/22 08:05:58;;;;;;;;;;;;;;;4.35;80.15;100499.75;4213030;28;20020;-69
2024/01/22 08:08:00;;;;;;;;;;;;;;;4.38;80.40;100518.19;4212643;28;20039;-70
2024/01/22 08:10:02;;;;;;;;;;;;;;;4.39;80.34;100509.19;4213234;28;20028;-70
2024/01/22 08:12:04;;;;;;;;;;;;;;;4.40;80.49;100493.97;4187537;28;20023;-70
2024/01/22 08:14:06;;;;;;;;;;;;;;;4.42;80.49;100508.03;4213430;28;20010;-69
2024/01/22 08:16:08;;;;;;;;;;;;;;;4.43;80.39;100504.38;4213316;28;20027;-70
2024/01/22 08:18:10;;;;;;;;;;;;;;;4.44;80.55;100514.94;4213276;28;20019;-70
2024/01/22 08:20:13;;;;;;;;;;;;;;;4.45;80.76;100513.09;4212351;28;20026;-69
2024/01/22 08:22:16;;;;;;;;;;;;;;;4.47;81.20;100514.66;4212747;28;20023;-70
2024/01/22 08:24:17;;;;;;;;;;;;;;;4.48;81.46;100521.69;4213121;28;20016;-70
2024/01/22 08:26:19;;;;;;;;;;;;;;;4.50;81.58;100510.84;4212047;28;19953;-70
2024/01/22 08:28:21;;;;;;;;;;;;;;;4.51;81.45;100515.19;4213101;28;20026;-70
2024/01/22 08:30:23;;;;;;;;;;;;;;;4.51;81.67;100534.78;4212905;28;20362;-70
2024/01/22 08:32:25;;;;;;;;;;;;;;;4.53;82.00;100507.91;4213290;28;20022;-69
2024/01/22 08:34:27;;;;;;;;;;;;;;;4.54;81.99;100514.91;4212738;28;20015;-70
2024/01/22 08:36:28;;;;;;;;;;;;;;;4.56;82.23;100525.47;4212328;28;20015;-70
2024/01/22 08:38:31;;;;;;;;;;;;;;;4.57;82.37;100506.59;4212672;28;20403;-70
2024/01/22 08:40:33;;;;;;;;;;;;;;;4.58;82.52;100505.63;4212228;28;20035;-70
2024/01/22 08:42:34;;;;;;;;;;;;;;;4.58;82.87;100521.69;4212300;28;20914;-69
2024/01/22 08:44:36;;;;;;;;;;;;;;;4.60;83.27;100500.13;4212771;28;19963;-69
2024/01/22 08:46:38;;;;;;;;;;;;;;;4.61;83.37;100501.84;4212416;28;20026;-70
2024/01/22 08:48:41;;;;;;;;;;;;;;;4.63;83.76;100514.06;4212849;28;20035;-70
2024/01/22 08:50:45;;;;;;;;;;;;;;;4.63;84.27;100502.53;4212662;28;20442;-70
2024/01/22 08:52:48;;;;;;;;;;;;;;;4.64;84.49;100526.44;4212190;28;20837;-70
2024/01/22 08:54:51;;;;;;;;;;;;;;;4.66;85.11;100502.22;4212619;28;20019;-70
2024/01/22 08:56:53;;;;;;;;;;;;;;;4.67;85.73;100487.84;4212160;28;20011;-70
2024/01/22 08:58:55;;;;;;;;;;;;;;;4.67;85.98;100490.53;4212776;28;20031;-70
2024/01/22 09:00:58;;;;;;;;;;;;;;;4.68;86.14;100487.69;4212638;28;20368;-70
2024/01/22 09:03:00;;;;;;;;;;;;;;;4.68;86.70;100485.03;4212665;28;20010;-70
2024/01/22 09:05:01;;;;;;;;;;;;;;;4.69;87.04;100491.25;4208187;28;20022;-70
2024/01/22 09:07:05;;;;;;;;;;;;;;;4.69;87.14;100499.28;4203595;28;20011;-70
2024/01/22 09:09:09;;;;;;;;;;;;;;;4.70;87.43;100495.59;4203491;28;20023;-70
2024/01/22 09:11:12;;;;;;;;;;;;;;;4.71;87.57;100480.41;4202380;28;20543;-70
2024/01/22 09:13:14;;;;;;;;;;;;;;;4.71;87.44;100499.97;4203563;28;20011;-70
2024/01/22 09:15:17;;;;;;;;;;;;;;;4.72;87.81;100485.59;4203577;28;20015;-70
2024/01/22 09:17:19;;;;;;;;;;;;;;;4.71;87.81;100491.09;4203363;28;20003;-70
2024/01/22 09:19:20;;;;;;;;;;;;;;;4.72;87.73;100498.13;4203484;28;20457;-70
2024/01/22 09:21:22;;;;;;;;;;;;;;;4.73;88.13;100494.47;4203371;28;20011;-70
2024/01/22 09:23:24;;;;;;;;;;;;;;;4.72;88.20;100507.00;4204654;28;20387;-70
2024/01/22 09:25:26;;;;;;;;;;;;;;;4.74;88.15;100498.84;4203896;28;20019;-70
2024/01/22 09:27:29;;;;;;;;;;;;;;;4.73;88.24;100492.63;4204229;28;20022;-70
2024/01/22 09:29:31;;;;;;;;;;;;;;;4.74;88.42;100510.38;4203479;28;20013;-70
2024/01/22 09:31:35;;;;;;;;;;;;;;;4.73;88.72;100479.25;4203694;28;20036;-70
2024/01/22 09:33:37;;;;;;;;;;;;;;;4.73;89.22;100487.28;4203966;28;20016;-70
2024/01/22 09:35:40;;;;;;;;;;;;;;;4.75;89.15;100485.31;4203286;28;20026;-70
2024/01/22 09:37:41;;;;;;;;;;;;;;;4.75;89.63;100484.44;4204022;28;20023;-70
2024/01/22 09:39:44;;;;;;;;;;;;;;;4.74;89.78;100483.63;4203344;28;20023;-70
2024/01/22 09:41:46;;;;;;;;;;;;;;;4.76;89.74;100460.22;4184760;28;20399;-69
2024/01/22 09:43:50;;;;;;;;;;;;;;;4.76;90.00;100465.56;4203837;28;20412;-70
2024/01/22 09:45:52;;;;;;;;;;;;;;;4.77;90.25;100474.47;4185703;28;20023;-70
2024/01/22 09:47:53;;;;;;;;;;;;;;;4.78;90.07;100478.81;4203976;28;20015;-69
2024/01/22 09:49:55;;;;;;;;;;;;;;;4.77;90.35;100467.28;4203441;28;19928;-70
2024/01/22 09:51:57;;;;;;;;;;;;;;;4.77;89.97;100467.28;4202858;28;20011;-70
2024/01/22 09:54:00;;;;;;;;;;;;;;;4.78;90.32;100454.72;4202956;28;20453;-71
2024/01/22 09:56:02;;;;;;;;;;;;;;;4.79;90.71;100448.41;4203493;28;20473;-70
2024/01/22 09:58:05;;;;;;;;;;;;;;;4.79;90.70;100457.25;4203925;28;20367;-70
2024/01/22 10:00:09;;;;;;;;;;;;;;;4.79;90.52;100449.22;4202831;28;20022;-70
2024/01/22 10:02:15;;;;;;;;;;;;;;;4.81;90.87;100425.88;4203767;28;20015;-70
2024/01/22 10:04:16;;;;;;;;;;;;;;;4.82;91.21;100434.72;4203418;28;19939;-69
2024/01/22 10:06:21;;;;;;;;;;;;;;;4.82;91.35;100426.69;4169878;28;20478;-70
2024/01/22 10:08:24;;;;;;;;;;;;;;;4.83;91.01;100436.44;4202934;28;20354;-70
2024/01/22 10:10:25;;;;;;;;;;;;;;;4.83;90.99;100437.25;4202840;28;20023;-70
2024/01/22 10:12:27;;;;;;;;;;;;;;;4.83;90.75;100417.69;4202676;28;20015;-69
2024/01/22 10:14:29;;;;;;;;;;;;;;;4.84;90.72;100433.59;4205381;28;20011;-69
2024/01/22 10:16:33;;;;;;;;;;;;;;;4.85;90.49;100423.72;4206562;28;20031;-70
2024/01/22 10:18:36;;;;;;;;;;;;;;;4.85;90.54;100410.34;4206368;28;20015;-71
2024/01/22 10:20:38;;;;;;;;;;;;;;;4.87;90.51;100416.38;4205349;28;20024;-69
2024/01/22 10:22:40;;;;;;;;;;;;;;;4.87;90.69;100414.56;4206695;28;20031;-70
2024/01/22 10:24:42;;;;;;;;;;;;;;;4.88;90.68;100400.19;4206381;28;19925;-70
2024/01/22 10:26:44;;;;;;;;;;;;;;;4.89;90.73;100395.69;4206998;28;20625;-70
2024/01/22 10:28:46;;;;;;;;;;;;;;;4.92;90.52;100387.38;4206396;28;20019;-70
2024/01/22 10:31:02;;;;;;;;;;;;;;;4.93;90.62;100399.75;4206153;28;19924;-70
2024/01/22 10:33:15;;;;;;;;;;;;;;;4.95;90.35;100405.78;4206632;28;20019;-70
2024/01/22 10:35:25;;;;;;;;;;;;;;;4.94;90.40;100401.44;4205770;28;20027;-71
2024/01/22 10:37:27;;;;;;;;;;;;;;;4.96;90.62;100396.78;4206480;28;20007;-71